sensor_id;sensor_type;location;lat;lon;timestamp;pressure;altitude;pressure_sealevel;temperature;humidity
75497;BME280;64074;47.540;19.072;2023-06-22T00:01:23;100764.38;;;23.75;76.19
75497;BME280;64074;47.540;19.072;2023-06-22T00:04:28;100764.38;;;23.75;77.05
75497;BME280;64074;47.540;19.072;2023-06-22T00:07:31;100765.88;;;23.69;76.72
75497;BME280;64074;47.540;19.072;2023-06-22T00:10:34;100772.16;;;23.66;76.40
75497;BME280;64074;47.540;19.072;2023-06-22T00:13:39;100779.78;;;23.50;75.19
75497;BME280;64074;47.540;19.072;2023-06-22T00:16:41;100783.94;;;23.59;76.12
75497;BME280;64074;47.540;19.072;2023-06-22T00:19:48;100771.78;;;23.68;76.15
75497;BME280;64074;47.540;19.072;2023-06-22T00:22:57;100766.66;;;23.70;76.40
75497;BME280;64074;47.540;19.072;2023-06-22T00:25:59;100774.94;;;23.43;74.63
75497;BME280;64074;47.540;19.072;2023-06-22T00:29:03;100776.22;;;23.49;75.27
75497;BME280;64074;47.540;19.072;2023-06-22T00:32:06;100766.16;;;23.38;74.01
75497;BME280;64074;47.540;19.072;2023-06-22T00:35:08;100757.13;;;23.41;74.85
75497;BME280;64074;47.540;19.072;2023-06-22T00:38:14;100756.03;;;23.49;74.47
75497;BME280;64074;47.540;19.072;2023-06-22T00:41:17;100750.06;;;23.70;75.74
75497;BME280;64074;47.540;19.072;2023-06-22T00:44:20;100761.50;;;23.68;74.01
75497;BME280;64074;47.540;19.072;2023-06-22T00:47:23;100759.84;;;23.63;74.93
75497;BME280;64074;47.540;19.072;2023-06-22T00:50:35;100756.03;;;23.49;73.62
75497;BME280;64074;47.540;19.072;2023-06-22T00:53:38;100760.31;;;23.43;73.15
75497;BME280;64074;47.540;19.072;2023-06-22T00:56:41;100747.38;;;23.50;73.15
75497;BME280;64074;47.540;19.072;2023-06-22T00:59:45;100756.25;;;23.59;73.97
75497;BME280;64074;47.540;19.072;2023-06-22T01:02:51;100762.31;;;23.69;74.52
75497;BME280;64074;47.540;19.072;2023-06-22T01:06:17;100762.72;;;23.71;74.67
75497;BME280;64074;47.540;19.072;2023-06-22T01:09:27;100760.72;;;23.68;73.34
75497;BME280;64074;47.540;19.072;2023-06-22T01:12:40;100760.84;;;23.78;73.91
75497;BME280;64074;47.540;19.072;2023-06-22T01:15:52;100759.66;;;23.79;74.22
75497;BME280;64074;47.540;19.072;2023-06-22T01:19:02;100755.44;;;23.85;74.24
75497;BME280;64074;47.540;19.072;2023-06-22T01:22:13;100750.88;;;23.47;70.63
75497;BME280;64074;47.540;19.072;2023-06-22T01:25:31;100756.41;;;23.47;73.83
75497;BME280;64074;47.540;19.072;2023-06-22T01:31:46;100766.47;;;23.82;76.12
75497;BME280;64074;47.540;19.072;2023-06-22T01:34:51;100768.16;;;23.63;76.42
75497;BME280;64074;47.540;19.072;2023-06-22T01:37:55;100768.09;;;23.11;76.55
75497;BME280;64074;47.540;19.072;2023-06-22T01:40:59;100762.94;;;23.09;76.99
75497;BME280;64074;47.540;19.072;2023-06-22T01:44:07;100761.19;;;23.01;77.17
75497;BME280;64074;47.540;19.072;2023-06-22T01:47:11;100766.66;;;22.97;77.49
75497;BME280;64074;47.540;19.072;2023-06-22T01:50:19;100769.72;;;23.38;78.15
75497;BME280;64074;47.540;19.072;2023-06-22T01:53:23;100760.06;;;23.28;77.14
75497;BME280;64074;47.540;19.072;2023-06-22T01:56:26;100768.69;;;23.23;76.78
75497;BME280;64074;47.540;19.072;2023-06-22T01:59:35;100774.97;;;23.20;77.03
75497;BME280;64074;47.540;19.072;2023-06-22T02:06:03;100770.69;;;23.49;77.15
75497;BME280;64074;47.540;19.072;2023-06-22T02:09:11;100780.56;;;23.50;77.00
75497;BME280;64074;47.540;19.072;2023-06-22T02:12:22;100775.94;;;23.31;78.17
75497;BME280;64074;47.540;19.072;2023-06-22T02:15:27;100786.38;;;23.42;78.30
75497;BME280;64074;47.540;19.072;2023-06-22T02:18:31;100776.56;;;23.21;78.79
75497;BME280;64074;47.540;19.072;2023-06-22T02:21:33;100793.34;;;23.32;78.39
75497;BME280;64074;47.540;19.072;2023-06-22T02:24:37;100784.75;;;23.14;77.37
75497;BME280;64074;47.540;19.072;2023-06-22T02:27:41;100790.09;;;23.03;77.84
75497;BME280;64074;47.540;19.072;2023-06-22T02:30:44;100784.31;;;22.89;77.03
75497;BME280;64074;47.540;19.072;2023-06-22T02:33:48;100792.19;;;22.49;77.05
75497;BME280;64074;47.540;19.072;2023-06-22T02:36:54;100788.94;;;22.82;76.54
75497;BME280;64074;47.540;19.072;2023-06-22T02:39:57;100795.56;;;22.58;76.93
75497;BME280;64074;47.540;19.072;2023-06-22T02:43:00;100804.84;;;22.30;76.69
75497;BME280;64074;47.540;19.072;2023-06-22T02:46:05;100806.25;;;22.40;76.29
75497;BME280;64074;47.540;19.072;2023-06-22T02:49:10;100800.41;;;22.45;76.61
75497;BME280;64074;47.540;19.072;2023-06-22T02:52:14;100797.34;;;22.50;76.28
75497;BME280;64074;47.540;19.072;2023-06-22T02:55:17;100808.06;;;22.32;76.21
75497;BME280;64074;47.540;19.072;2023-06-22T02:58:28;100808.75;;;22.29;76.06
75497;BME280;64074;47.540;19.072;2023-06-22T03:01:30;100808.09;;;22.55;76.29
75497;BME280;64074;47.540;19.072;2023-06-22T03:04:41;100807.03;;;22.60;76.59
75497;BME280;64074;47.540;19.072;2023-06-22T03:07:46;100798.44;;;22.65;74.87
75497;BME280;64074;47.540;19.072;2023-06-22T03:10:49;100797.44;;;22.34;76.04
75497;BME280;64074;47.540;19.072;2023-06-22T03:13:52;100788.75;;;22.55;75.74
75497;BME280;64074;47.540;19.072;2023-06-22T03:16:55;100806.06;;;22.71;75.20
75497;BME280;64074;47.540;19.072;2023-06-22T03:20:05;100798.56;;;22.72;74.73
75497;BME280;64074;47.540;19.072;2023-06-22T03:23:12;100800.91;;;22.70;75.09
75497;BME280;64074;47.540;19.072;2023-06-22T03:26:19;100804.59;;;22.78;74.73
75497;BME280;64074;47.540;19.072;2023-06-22T03:29:23;100802.56;;;22.55;74.91
75497;BME280;64074;47.540;19.072;2023-06-22T03:32:30;100794.75;;;22.57;74.67
75497;BME280;64074;47.540;19.072;2023-06-22T03:35:34;100787.63;;;22.37;74.72
75497;BME280;64074;47.540;19.072;2023-06-22T03:38:38;100786.16;;;22.62;74.66
75497;BME280;64074;47.540;19.072;2023-06-22T03:41:44;100794.28;;;22.55;74.27
75497;BME280;64074;47.540;19.072;2023-06-22T03:44:47;100791.13;;;22.76;75.17
75497;BME280;64074;47.540;19.072;2023-06-22T03:47:51;100802.44;;;22.87;75.50
75497;BME280;64074;47.540;19.072;2023-06-22T03:50:55;100810.38;;;22.88;75.04
75497;BME280;64074;47.540;19.072;2023-06-22T03:53:58;100808.28;;;22.82;74.52
75497;BME280;64074;47.540;19.072;2023-06-22T03:57:02;100804.34;;;22.83;74.22
75497;BME280;64074;47.540;19.072;2023-06-22T04:00:06;100806.50;;;22.54;74.50
75497;BME280;64074;47.540;19.072;2023-06-22T04:03:17;100819.63;;;22.38;75.20
75497;BME280;64074;47.540;19.072;2023-06-22T04:06:24;100819.44;;;22.69;75.07
75497;BME280;64074;47.540;19.072;2023-06-22T04:09:27;100821.88;;;22.32;76.24
75497;BME280;64074;47.540;19.072;2023-06-22T04:12:30;100814.53;;;22.40;76.35
75497;BME280;64074;47.540;19.072;2023-06-22T04:15:33;100817.72;;;22.61;75.98
75497;BME280;64074;47.540;19.072;2023-06-22T04:18:36;100811.47;;;22.64;75.65
75497;BME280;64074;47.540;19.072;2023-06-22T04:21:39;100813.50;;;22.67;75.35
75497;BME280;64074;47.540;19.072;2023-06-22T04:24:46;100828.13;;;22.87;74.57
75497;BME280;64074;47.540;19.072;2023-06-22T04:27:50;100828.56;;;22.89;74.82
75497;BME280;64074;47.540;19.072;2023-06-22T04:30:54;100827.03;;;22.92;74.97
75497;BME280;64074;47.540;19.072;2023-06-22T04:34:02;100834.16;;;22.93;74.76
75497;BME280;64074;47.540;19.072;2023-06-22T04:37:08;100830.22;;;22.94;74.19
75497;BME280;64074;47.540;19.072;2023-06-22T04:40:12;100820.63;;;22.88;74.53
75497;BME280;64074;47.540;19.072;2023-06-22T04:43:17;100819.72;;;23.03;74.13
75497;BME280;64074;47.540;19.072;2023-06-22T04:46:20;100837.78;;;23.20;73.52
75497;BME280;64074;47.540;19.072;2023-06-22T04:49:23;100827.84;;;23.38;73.15
75497;BME280;64074;47.540;19.072;2023-06-22T04:52:34;100829.00;;;23.37;73.10
75497;BME280;64074;47.540;19.072;2023-06-22T04:55:37;100835.47;;;23.45;72.93
75497;BME280;64074;47.540;19.072;2023-06-22T04:58:44;100836.63;;;23.21;72.17
75497;BME280;64074;47.540;19.072;2023-06-22T05:01:47;100835.47;;;23.45;71.58
75497;BME280;64074;47.540;19.072;2023-06-22T05:04:50;100836.00;;;23.54;71.49
75497;BME280;64074;47.540;19.072;2023-06-22T05:07:56;100833.38;;;23.38;71.98
75497;BME280;64074;47.540;19.072;2023-06-22T05:11:02;100840.16;;;23.63;70.78
75497;BME280;64074;47.540;19.072;2023-06-22T05:14:07;100848.56;;;23.71;70.26
75497;BME280;64074;47.540;19.072;2023-06-22T05:17:10;100842.88;;;23.60;70.04
75497;BME280;64074;47.540;19.072;2023-06-22T05:20:17;100847.06;;;23.77;69.73
75497;BME280;64074;47.540;19.072;2023-06-22T05:23:21;100852.72;;;23.57;69.23
75497;BME280;64074;47.540;19.072;2023-06-22T05:26:29;100841.25;;;23.36;70.85
75497;BME280;64074;47.540;19.072;2023-06-22T05:29:32;100845.78;;;23.48;70.03
75497;BME280;64074;47.540;19.072;2023-06-22T05:32:40;100866.97;;;23.59;70.68
75497;BME280;64074;47.540;19.072;2023-06-22T05:35:43;100865.13;;;23.93;69.66
75497;BME280;64074;47.540;19.072;2023-06-22T05:38:46;100869.97;;;24.00;68.81
75497;BME280;64074;47.540;19.072;2023-06-22T05:41:50;100873.50;;;23.97;68.71
75497;BME280;64074;47.540;19.072;2023-06-22T05:44:53;100886.59;;;24.00;68.64
75497;BME280;64074;47.540;19.072;2023-06-22T05:47:56;100879.41;;;23.96;68.92
75497;BME280;64074;47.540;19.072;2023-06-22T05:50:59;100878.41;;;24.07;68.65
75497;BME280;64074;47.540;19.072;2023-06-22T05:54:02;100883.34;;;24.21;68.37
75497;BME280;64074;47.540;19.072;2023-06-22T05:57:05;100875.50;;;24.27;67.82
75497;BME280;64074;47.540;19.072;2023-06-22T06:00:09;100885.34;;;24.24;67.63
75497;BME280;64074;47.540;19.072;2023-06-22T06:03:20;100885.22;;;24.40;66.71
75497;BME280;64074;47.540;19.072;2023-06-22T06:06:24;100877.78;;;24.47;65.42
75497;BME280;64074;47.540;19.072;2023-06-22T06:09:32;100884.31;;;24.62;66.04
75497;BME280;64074;47.540;19.072;2023-06-22T06:12:43;100877.34;;;24.75;66.05
75497;BME280;64074;47.540;19.072;2023-06-22T06:15:51;100873.06;;;24.81;65.91
75497;BME280;64074;47.540;19.072;2023-06-22T06:18:56;100882.72;;;24.95;65.97
75497;BME280;64074;47.540;19.072;2023-06-22T06:21:58;100878.16;;;25.09;65.11
75497;BME280;64074;47.540;19.072;2023-06-22T06:25:01;100873.06;;;25.15;64.59
75497;BME280;64074;47.540;19.072;2023-06-22T06:28:05;100864.91;;;25.33;64.12
75497;BME280;64074;47.540;19.072;2023-06-22T06:31:10;100869.78;;;25.46;63.66
75497;BME280;64074;47.540;19.072;2023-06-22T06:34:24;100872.19;;;25.52;62.99
75497;BME280;64074;47.540;19.072;2023-06-22T06:37:27;100878.59;;;25.56;56.64
75497;BME280;64074;47.540;19.072;2023-06-22T06:40:31;100868.56;;;25.88;57.62
75497;BME280;64074;47.540;19.072;2023-06-22T06:43:34;100857.84;;;25.90;57.22
75497;BME280;64074;47.540;19.072;2023-06-22T06:46:37;100864.59;;;25.93;57.03
75497;BME280;64074;47.540;19.072;2023-06-22T06:49:41;100867.88;;;26.05;57.25
75497;BME280;64074;47.540;19.072;2023-06-22T06:52:45;100869.91;;;26.12;56.22
75497;BME280;64074;47.540;19.072;2023-06-22T06:55:48;100858.84;;;26.26;53.85
75497;BME280;64074;47.540;19.072;2023-06-22T06:58:53;100862.06;;;26.32;51.73
75497;BME280;64074;47.540;19.072;2023-06-22T07:01:56;100857.31;;;26.32;51.55
75497;BME280;64074;47.540;19.072;2023-06-22T07:04:59;100857.84;;;26.56;51.94
75497;BME280;64074;47.540;19.072;2023-06-22T07:08:02;100859.84;;;26.66;50.81
75497;BME280;64074;47.540;19.072;2023-06-22T07:11:05;100863.44;;;26.66;51.25
75497;BME280;64074;47.540;19.072;2023-06-22T07:14:08;100853.09;;;26.74;51.28
75497;BME280;64074;47.540;19.072;2023-06-22T07:17:11;100857.13;;;26.91;51.73
75497;BME280;64074;47.540;19.072;2023-06-22T07:20:14;100863.56;;;27.02;50.68
75497;BME280;64074;47.540;19.072;2023-06-22T07:23:17;100861.13;;;26.93;49.31
75497;BME280;64074;47.540;19.072;2023-06-22T07:26:21;100860.72;;;26.88;50.53
75497;BME280;64074;47.540;19.072;2023-06-22T07:29:25;100852.06;;;27.14;49.70
75497;BME280;64074;47.540;19.072;2023-06-22T07:33:03;100853.28;;;27.31;49.38
75497;BME280;64074;47.540;19.072;2023-06-22T07:36:36;100853.66;;;27.33;48.50
75497;BME280;64074;47.540;19.072;2023-06-22T07:40:12;100855.66;;;27.36;47.43
75497;BME280;64074;47.540;19.072;2023-06-22T07:43:16;100856.06;;;27.59;47.19
75497;BME280;64074;47.540;19.072;2023-06-22T07:46:19;100851.69;;;27.69;47.77
75497;BME280;64074;47.540;19.072;2023-06-22T07:49:22;100851.69;;;27.69;48.35
75497;BME280;64074;47.540;19.072;2023-06-22T07:52:25;100851.69;;;27.80;47.64
75497;BME280;64074;47.540;19.072;2023-06-22T07:55:28;100862.03;;;27.69;46.46
75497;BME280;64074;47.540;19.072;2023-06-22T07:58:33;100855.28;;;27.63;46.34
75497;BME280;64074;47.540;19.072;2023-06-22T08:01:42;100852.47;;;27.87;46.57
75497;BME280;64074;47.540;19.072;2023-06-22T08:04:46;100844.53;;;27.82;46.12
75497;BME280;64074;47.540;19.072;2023-06-22T08:07:49;100850.50;;;27.77;45.20
75497;BME280;64074;47.540;19.072;2023-06-22T08:10:53;100834.53;;;28.03;45.52
75497;BME280;64074;47.540;19.072;2023-06-22T08:13:56;100834.88;;;28.15;46.32
75497;BME280;64074;47.540;19.072;2023-06-22T08:17:02;100837.25;;;28.31;46.11
75497;BME280;64074;47.540;19.072;2023-06-22T08:20:06;100829.25;;;28.40;45.76
75497;BME280;64074;47.540;19.072;2023-06-22T08:23:13;100827.63;;;28.43;44.32
75497;BME280;64074;47.540;19.072;2023-06-22T08:26:16;100820.84;;;28.44;45.09
75497;BME280;64074;47.540;19.072;2023-06-22T08:29:19;100824.06;;;28.42;45.35
75497;BME280;64074;47.540;19.072;2023-06-22T08:32:28;100836.38;;;28.48;45.70
75497;BME280;64074;47.540;19.072;2023-06-22T08:35:31;100823.97;;;28.60;44.88
75497;BME280;64074;47.540;19.072;2023-06-22T08:38:35;100829.53;;;28.64;44.90
75497;BME280;64074;47.540;19.072;2023-06-22T08:41:38;100811.53;;;28.72;44.27
75497;BME280;64074;47.540;19.072;2023-06-22T08:44:41;100811.88;;;28.88;44.65
75497;BME280;64074;47.540;19.072;2023-06-22T08:47:43;100820.97;;;29.03;44.78
75497;BME280;64074;47.540;19.072;2023-06-22T08:50:52;100817.78;;;28.97;43.66
75497;BME280;64074;47.540;19.072;2023-06-22T08:54:06;100804.78;;;29.32;44.02
75497;BME280;64074;47.540;19.072;2023-06-22T08:57:10;100802.69;;;29.39;44.14
75497;BME280;64074;47.540;19.072;2023-06-22T09:00:16;100798.16;;;29.60;43.64
75497;BME280;64074;47.540;19.072;2023-06-22T09:03:20;100798.75;;;29.82;44.60
75497;BME280;64074;47.540;19.072;2023-06-22T09:06:24;100792.44;;;29.70;42.90
75497;BME280;64074;47.540;19.072;2023-06-22T09:09:29;100799.09;;;30.21;42.53
75497;BME280;64074;47.540;19.072;2023-06-22T09:12:33;100798.81;;;30.12;43.14
75497;BME280;64074;47.540;19.072;2023-06-22T09:15:37;100789.06;;;30.27;42.17
75497;BME280;64074;47.540;19.072;2023-06-22T09:18:40;100776.72;;;30.21;41.89
75497;BME280;64074;47.540;19.072;2023-06-22T09:21:46;100781.56;;;30.17;42.32
75497;BME280;64074;47.540;19.072;2023-06-22T09:24:50;100774.75;;;30.18;41.82
75497;BME280;64074;47.540;19.072;2023-06-22T09:27:53;100775.69;;;30.39;41.87
75497;BME280;64074;47.540;19.072;2023-06-22T09:30:58;100780.41;;;30.45;42.06
75497;BME280;64074;47.540;19.072;2023-06-22T09:34:02;100776.28;;;30.26;42.55
75497;BME280;64074;47.540;19.072;2023-06-22T09:37:05;100767.72;;;30.37;41.50
75497;BME280;64074;47.540;19.072;2023-06-22T09:40:08;100776.59;;;30.63;42.48
75497;BME280;64074;47.540;19.072;2023-06-22T09:43:13;100774.06;;;30.99;41.83
75497;BME280;64074;47.540;19.072;2023-06-22T09:46:16;100775.09;;;31.08;41.20
75497;BME280;64074;47.540;19.072;2023-06-22T09:49:19;100774.50;;;31.20;41.13
75497;BME280;64074;47.540;19.072;2023-06-22T09:52:42;100776.69;;;31.09;41.42
75497;BME280;64074;47.540;19.072;2023-06-22T09:55:50;100774.56;;;31.17;40.97
75497;BME280;64074;47.540;19.072;2023-06-22T09:58:56;100772.16;;;31.15;41.47
75497;BME280;64074;47.540;19.072;2023-06-22T10:02:19;100769.56;;;31.05;41.33
75497;BME280;64074;47.540;19.072;2023-06-22T10:05:30;100771.97;;;30.79;42.04
75497;BME280;64074;47.540;19.072;2023-06-22T10:08:37;100768.25;;;30.86;41.00
75497;BME280;64074;47.540;19.072;2023-06-22T10:11:40;100771.47;;;30.84;41.69
75497;BME280;64074;47.540;19.072;2023-06-22T10:14:43;100768.00;;;31.27;42.23
75497;BME280;64074;47.540;19.072;2023-06-22T10:17:47;100767.59;;;31.29;41.87
75497;BME280;64074;47.540;19.072;2023-06-22T10:20:51;100769.94;;;31.53;40.54
75497;BME280;64074;47.540;19.072;2023-06-22T10:23:55;100759.78;;;31.40;40.25
75497;BME280;64074;47.540;19.072;2023-06-22T10:26:58;100759.81;;;31.60;40.76
75497;BME280;64074;47.540;19.072;2023-06-22T10:30:01;100751.19;;;31.50;40.83
75497;BME280;64074;47.540;19.072;2023-06-22T10:33:04;100762.59;;;30.89;41.47
75497;BME280;64074;47.540;19.072;2023-06-22T10:36:07;100761.84;;;31.36;40.58
75497;BME280;64074;47.540;19.072;2023-06-22T10:39:10;100749.28;;;31.20;40.85
75497;BME280;64074;47.540;19.072;2023-06-22T10:42:14;100757.81;;;31.37;41.14
75497;BME280;64074;47.540;19.072;2023-06-22T10:45:16;100759.44;;;31.58;41.14
75497;BME280;64074;47.540;19.072;2023-06-22T10:48:20;100745.97;;;31.92;38.48
75497;BME280;64074;47.540;19.072;2023-06-22T10:51:25;100746.56;;;32.03;39.33
75497;BME280;64074;47.540;19.072;2023-06-22T10:54:28;100743.00;;;32.19;38.78
75497;BME280;64074;47.540;19.072;2023-06-22T10:57:31;100742.81;;;31.90;39.40
75497;BME280;64074;47.540;19.072;2023-06-22T11:00:34;100740.03;;;32.46;38.65
75497;BME280;64074;47.540;19.072;2023-06-22T11:03:37;100738.41;;;32.65;38.10
75497;BME280;64074;47.540;19.072;2023-06-22T11:06:40;100744.13;;;32.94;38.16
75497;BME280;64074;47.540;19.072;2023-06-22T11:09:43;100744.59;;;32.92;37.07
75497;BME280;64074;47.540;19.072;2023-06-22T11:12:46;100738.41;;;32.49;39.49
75497;BME280;64074;47.540;19.072;2023-06-22T11:15:49;100731.97;;;33.00;37.91
75497;BME280;64074;47.540;19.072;2023-06-22T11:18:53;100730.78;;;33.30;37.99
75497;BME280;64074;47.540;19.072;2023-06-22T11:21:56;100722.03;;;33.57;37.07
75497;BME280;64074;47.540;19.072;2023-06-22T11:24:59;100726.09;;;33.85;36.20
75497;BME280;64074;47.540;19.072;2023-06-22T11:28:02;100720.97;;;34.09;36.47
75497;BME280;64074;47.540;19.072;2023-06-22T11:31:06;100719.91;;;33.61;35.91
75497;BME280;64074;47.540;19.072;2023-06-22T11:34:27;100714.09;;;34.10;35.03
75497;BME280;64074;47.540;19.072;2023-06-22T11:37:30;100719.88;;;33.49;35.44
75497;BME280;64074;47.540;19.072;2023-06-22T11:40:34;100718.25;;;34.06;35.36
75497;BME280;64074;47.540;19.072;2023-06-22T11:43:37;100716.19;;;33.93;34.89
75497;BME280;64074;47.540;19.072;2023-06-22T11:46:40;100709.03;;;34.18;34.30
75497;BME280;64074;47.540;19.072;2023-06-22T11:49:42;100714.28;;;33.90;35.17
75497;BME280;64074;47.540;19.072;2023-06-22T11:52:46;100696.63;;;33.16;35.99
75497;BME280;64074;47.540;19.072;2023-06-22T11:55:49;100696.72;;;33.86;34.92
75497;BME280;64074;47.540;19.072;2023-06-22T11:58:54;100706.81;;;35.02;34.28
75497;BME280;64074;47.540;19.072;2023-06-22T12:01:57;100703.03;;;35.52;31.98
75497;BME280;64074;47.540;19.072;2023-06-22T12:05:01;100701.41;;;35.86;31.42
75497;BME280;64074;47.540;19.072;2023-06-22T12:08:07;100685.50;;;36.72;30.55
75497;BME280;64074;47.540;19.072;2023-06-22T12:11:11;100694.56;;;37.53;30.50
75497;BME280;64074;47.540;19.072;2023-06-22T12:14:14;100694.19;;;35.85;31.28
75497;BME280;64074;47.540;19.072;2023-06-22T12:17:17;100692.41;;;35.56;31.78
75497;BME280;64074;47.540;19.072;2023-06-22T12:20:20;100683.41;;;36.45;32.16
75497;BME280;64074;47.540;19.072;2023-06-22T12:23:25;100677.72;;;37.77;29.77
75497;BME280;64074;47.540;19.072;2023-06-22T12:26:30;100664.69;;;37.70;29.26
75497;BME280;64074;47.540;19.072;2023-06-22T12:29:33;100663.13;;;37.05;29.40
75497;BME280;64074;47.540;19.072;2023-06-22T12:32:36;100659.84;;;37.34;30.12
75497;BME280;64074;47.540;19.072;2023-06-22T12:35:41;100654.81;;;38.50;28.82
75497;BME280;64074;47.540;19.072;2023-06-22T12:38:47;100651.91;;;39.31;27.06
75497;BME280;64074;47.540;19.072;2023-06-22T12:41:55;100656.22;;;38.22;28.21
75497;BME280;64074;47.540;19.072;2023-06-22T12:44:58;100660.63;;;39.03;27.52
75497;BME280;64074;47.540;19.072;2023-06-22T12:48:01;100656.94;;;39.51;27.01
75497;BME280;64074;47.540;19.072;2023-06-22T12:51:04;100644.22;;;40.05;26.60
75497;BME280;64074;47.540;19.072;2023-06-22T12:54:17;100640.06;;;38.37;27.63
75497;BME280;64074;47.540;19.072;2023-06-22T12:57:53;100635.38;;;38.34;27.56
75497;BME280;64074;47.540;19.072;2023-06-22T13:00:56;100651.41;;;38.70;27.42
75497;BME280;64074;47.540;19.072;2023-06-22T13:03:59;100651.00;;;38.53;28.45
75497;BME280;64074;47.540;19.072;2023-06-22T13:07:03;100637.16;;;38.79;27.48
75497;BME280;64074;47.540;19.072;2023-06-22T13:10:22;100637.66;;;39.84;25.92
75497;BME280;64074;47.540;19.072;2023-06-22T13:13:25;100630.50;;;40.04;25.98
75497;BME280;64074;47.540;19.072;2023-06-22T13:16:30;100627.50;;;41.24;26.17
75497;BME280;64074;47.540;19.072;2023-06-22T13:19:33;100619.75;;;42.50;23.67
75497;BME280;64074;47.540;19.072;2023-06-22T13:22:36;100613.88;;;41.13;24.20
75497;BME280;64074;47.540;19.072;2023-06-22T13:25:43;100612.69;;;40.38;25.13
75497;BME280;64074;47.540;19.072;2023-06-22T13:28:45;100605.81;;;41.58;24.84
75497;BME280;64074;47.540;19.072;2023-06-22T13:31:48;100612.69;;;42.40;23.54
75497;BME280;64074;47.540;19.072;2023-06-22T13:34:53;100611.75;;;41.86;24.03
75497;BME280;64074;47.540;19.072;2023-06-22T13:37:56;100608.59;;;43.23;22.78
75497;BME280;64074;47.540;19.072;2023-06-22T13:40:59;100611.72;;;42.54;22.29
75497;BME280;64074;47.540;19.072;2023-06-22T13:44:02;100603.66;;;41.21;23.91
75497;BME280;64074;47.540;19.072;2023-06-22T13:47:06;100598.13;;;41.38;24.64
75497;BME280;64074;47.540;19.072;2023-06-22T13:50:09;100605.25;;;40.26;25.42
75497;BME280;64074;47.540;19.072;2023-06-22T13:53:12;100606.00;;;39.32;26.62
75497;BME280;64074;47.540;19.072;2023-06-22T13:56:15;100598.44;;;39.15;26.92
75497;BME280;64074;47.540;19.072;2023-06-22T13:59:19;100592.34;;;40.25;25.98
75497;BME280;64074;47.540;19.072;2023-06-22T14:02:23;100591.41;;;40.34;25.19
75497;BME280;64074;47.540;19.072;2023-06-22T14:05:26;100585.91;;;40.85;24.41
75497;BME280;64074;47.540;19.072;2023-06-22T14:08:29;100581.59;;;40.90;24.34
75497;BME280;64074;47.540;19.072;2023-06-22T14:11:35;100580.94;;;42.69;23.42
75497;BME280;64074;47.540;19.072;2023-06-22T14:14:38;100570.72;;;43.17;22.19
75497;BME280;64074;47.540;19.072;2023-06-22T14:17:42;100576.38;;;42.94;23.14
75497;BME280;64074;47.540;19.072;2023-06-22T14:20:45;100574.69;;;40.56;24.75
75497;BME280;64074;47.540;19.072;2023-06-22T14:23:48;100568.31;;;40.26;25.46
75497;BME280;64074;47.540;19.072;2023-06-22T14:26:52;100573.31;;;39.96;26.14
75497;BME280;64074;47.540;19.072;2023-06-22T14:29:55;100556.56;;;39.98;25.63
75497;BME280;64074;47.540;19.072;2023-06-22T14:32:59;100558.84;;;39.79;25.65
75497;BME280;64074;47.540;19.072;2023-06-22T14:36:02;100553.94;;;39.65;25.78
75497;BME280;64074;47.540;19.072;2023-06-22T14:39:05;100552.88;;;39.77;25.85
75497;BME280;64074;47.540;19.072;2023-06-22T14:42:09;100544.16;;;42.23;24.14
75497;BME280;64074;47.540;19.072;2023-06-22T14:45:12;100541.34;;;42.29;23.65
75497;BME280;64074;47.540;19.072;2023-06-22T14:48:16;100538.78;;;42.36;23.30
75497;BME280;64074;47.540;19.072;2023-06-22T14:51:19;100541.53;;;40.94;24.32
75497;BME280;64074;47.540;19.072;2023-06-22T14:54:22;100541.00;;;39.93;25.91
75497;BME280;64074;47.540;19.072;2023-06-22T14:57:28;100544.97;;;38.69;27.07
75497;BME280;64074;47.540;19.072;2023-06-22T15:00:31;100533.09;;;38.32;28.14
75497;BME280;64074;47.540;19.072;2023-06-22T15:03:35;100535.53;;;37.82;29.25
75497;BME280;64074;47.540;19.072;2023-06-22T15:06:38;100520.72;;;38.44;29.64
75497;BME280;64074;47.540;19.072;2023-06-22T15:09:42;100523.03;;;36.86;30.41
75497;BME280;64074;47.540;19.072;2023-06-22T15:12:45;100521.72;;;36.41;30.70
75497;BME280;64074;47.540;19.072;2023-06-22T15:15:48;100515.72;;;36.30;31.63
75497;BME280;64074;47.540;19.072;2023-06-22T15:18:56;100507.47;;;36.45;31.40
75497;BME280;64074;47.540;19.072;2023-06-22T15:21:58;100504.19;;;35.88;32.09
75497;BME280;64074;47.540;19.072;2023-06-22T15:25:02;100516.63;;;35.37;32.91
75497;BME280;64074;47.540;19.072;2023-06-22T15:28:08;100510.06;;;36.21;32.83
75497;BME280;64074;47.540;19.072;2023-06-22T15:31:10;100514.38;;;36.44;32.43
75497;BME280;64074;47.540;19.072;2023-06-22T15:34:13;100506.03;;;36.58;32.57
75497;BME280;64074;47.540;19.072;2023-06-22T15:37:16;100506.19;;;36.36;32.14
75497;BME280;64074;47.540;19.072;2023-06-22T15:40:19;100504.38;;;36.02;32.46
75497;BME280;64074;47.540;19.072;2023-06-22T15:43:22;100498.84;;;35.90;32.26
75497;BME280;64074;47.540;19.072;2023-06-22T15:46:25;100499.84;;;35.65;32.69
75497;BME280;64074;47.540;19.072;2023-06-22T15:49:28;100509.97;;;35.84;31.96
75497;BME280;64074;47.540;19.072;2023-06-22T15:52:32;100513.81;;;36.09;31.99
75497;BME280;64074;47.540;19.072;2023-06-22T15:55:35;100506.06;;;36.49;31.91
75497;BME280;64074;47.540;19.072;2023-06-22T15:58:38;100513.50;;;36.06;32.51
75497;BME280;64074;47.540;19.072;2023-06-22T16:01:42;100514.16;;;35.80;31.89